Time;durP1;ratioP1;P1;durP2;ratioP2;P2;SDS_P1;SDS_P2;PMS_P1;PMS_P2;Temp;Humidity;BMP_temperature;BMP_pressure;BME280_temperature;BME280_humidity;BME280_pressure;Samples;Min_cycle;Max_cycle;Signal;HPM_P1;HPM_P2
2022/04/25 00:01:53;;;;;;;13.87;6.23;;;8.70;99.90;;;;;;5003574;28;20195;-83
2022/04/25 00:04:21;;;;;;;10.07;5.87;;;;;;;;;;4998675;28;20206;-84
2022/04/25 00:06:48;;;;;;;8.40;5.23;;;8.70;99.90;;;;;;4990766;28;20213;-86
2022/04/25 00:09:16;;;;;;;11.27;6.27;;;8.80;99.90;;;;;;4989825;28;20211;-83
2022/04/25 00:11:44;;;;;;;13.17;6.37;;;8.80;99.90;;;;;;4985667;28;20214;-85
2022/04/25 00:14:14;;;;;;;12.70;6.77;;;8.90;99.90;;;;;;4991123;28;20499;-84
2022/04/25 00:16:42;;;;;;;11.70;6.33;;;8.90;99.90;;;;;;4983677;28;20231;-83
2022/04/25 00:19:11;;;;;;;13.73;7.63;;;9.00;99.90;;;;;;4986919;28;20622;-84
2022/04/25 00:21:39;;;;;;;14.17;7.80;;;9.00;99.90;;;;;;5003602;28;20209;-86
2022/04/25 00:24:07;;;;;;;12.50;7.30;;;9.10;99.90;;;;;;4997395;28;20227;-84
2022/04/25 00:26:34;;;;;;;13.17;7.47;;;9.10;99.90;;;;;;4992963;28;20205;-84
2022/04/25 00:29:01;;;;;;;13.03;6.97;;;9.10;99.90;;;;;;4999041;28;20211;-84
2022/04/25 00:31:31;;;;;;;13.77;6.40;;;9.10;99.90;;;;;;4991530;28;20207;-83
2022/04/25 00:33:59;;;;;;;13.63;7.67;;;;;;;;;;4991579;28;20227;-84
2022/04/25 00:36:27;;;;;;;12.23;7.17;;;9.10;99.90;;;;;;4988024;28;20634;-84
2022/04/25 00:38:54;;;;;;;12.27;8.03;;;9.00;99.90;;;;;;5004812;28;20810;-84
2022/04/25 00:41:21;;;;;;;11.93;6.77;;;9.00;99.90;;;;;;4995521;28;20242;-83
2022/04/25 00:43:49;;;;;;;12.10;7.30;;;9.10;99.90;;;;;;5002000;28;20231;-83
2022/04/25 00:46:21;;;;;;;12.90;7.07;;;9.10;99.90;;;;;;4996373;28;20211;-83
2022/04/25 00:48:49;;;;;;;12.83;7.53;;;9.10;99.90;;;;;;4990760;28;20253;-83
2022/04/25 00:51:17;;;;;;;15.50;8.33;;;9.10;99.90;;;;;;4986201;28;20207;-85
2022/04/25 00:53:47;;;;;;;16.53;7.50;;;9.10;99.90;;;;;;4980736;28;20243;-84
2022/04/25 00:56:16;;;;;;;15.60;8.57;;;9.10;99.90;;;;;;4993614;28;20249;-84
2022/04/25 00:58:44;;;;;;;12.70;7.03;;;9.10;99.90;;;;;;5003582;28;20978;-84
2022/04/25 01:01:12;;;;;;;11.13;5.60;;;9.00;99.90;;;;;;4997465;28;20203;-82
2022/04/25 01:03:39;;;;;;;11.33;5.87;;;9.00;99.90;;;;;;4982094;28;20237;-81
2022/04/25 01:06:09;;;;;;;11.60;6.77;;;8.90;99.90;;;;;;4979752;28;20203;-81
2022/04/25 01:08:39;;;;;;;8.90;5.23;;;8.90;99.90;;;;;;4994592;28;20262;-81
2022/04/25 01:11:08;;;;;;;10.80;6.10;;;8.60;99.90;;;;;;4988657;28;20203;-80
2022/04/25 01:13:35;;;;;;;12.40;6.73;;;8.80;99.90;;;;;;4989859;28;20647;-81
2022/04/25 01:16:02;;;;;;;12.93;6.27;;;8.80;99.90;;;;;;4991892;28;20230;-79
2022/04/25 01:18:29;;;;;;;10.50;5.57;;;8.80;99.90;;;;;;4994459;28;20215;-78
2022/04/25 01:20:58;;;;;;;10.60;5.50;;;8.70;99.90;;;;;;4986187;28;20216;-82
2022/04/25 01:29:09;;;;;;;13.27;6.23;;;8.70;99.90;;;;;;4976854;28;20293;-79
2022/04/25 01:31:37;;;;;;;11.40;6.00;;;8.60;99.90;;;;;;4990714;28;20765;-80
2022/04/25 01:34:05;;;;;;;11.37;6.20;;;8.60;99.90;;;;;;4985530;28;20284;-79
2022/04/25 01:36:32;;;;;;;14.70;7.40;;;8.60;99.90;;;;;;4976447;28;20234;-78
2022/04/25 01:39:01;;;;;;;11.33;6.43;;;8.50;99.90;;;;;;4961908;28;20619;-78
2022/04/25 01:41:29;;;;;;;11.97;4.97;;;8.50;99.90;;;;;;4981491;28;20207;-79
2022/04/25 01:43:56;;;;;;;11.27;6.00;;;8.60;99.90;;;;;;4977849;28;20631;-79
2022/04/25 01:46:23;;;;;;;14.47;6.63;;;8.50;99.90;;;;;;4990461;28;20203;-79
2022/04/25 01:48:50;;;;;;;10.23;5.80;;;9.90;99.90;;;;;;4997684;28;20211;-79
2022/04/25 01:51:17;;;;;;;12.87;6.93;;;8.60;99.90;;;;;;4993972;28;20206;-79
2022/04/25 01:53:45;;;;;;;12.70;6.37;;;8.60;99.90;;;;;;4984464;28;20239;-79
2022/04/25 01:56:13;;;;;;;11.67;6.30;;;8.60;99.90;;;;;;4979330;28;20713;-80
2022/04/25 01:58:40;;;;;;;12.80;6.90;;;8.80;99.90;;;;;;4987685;28;20226;-80
2022/04/25 02:01:07;;;;;;;11.60;6.60;;;8.60;99.90;;;;;;4988179;28;20215;-80
2022/04/25 02:03:35;;;;;;;10.97;5.87;;;8.60;99.90;;;;;;4983459;28;20258;-80
2022/04/25 02:06:02;;;;;;;10.73;6.00;;;8.60;99.90;;;;;;5000856;28;20206;-80
2022/04/25 02:08:30;;;;;;;10.20;6.00;;;8.60;99.90;;;;;;4998781;28;20210;-80
2022/04/25 02:13:46;;;;;;;10.57;6.27;;;8.50;99.90;;;;;;4993375;28;20206;-80
2022/04/25 02:16:14;;;;;;;11.20;6.67;;;8.40;99.90;;;;;;4988503;28;20228;-80
2022/04/25 02:18:42;;;;;;;11.87;6.60;;;8.40;99.90;;;;;;4972031;28;20222;-80
2022/04/25 02:21:09;;;;;;;10.00;6.30;;;8.40;99.90;;;;;;4981535;28;20571;-81
2022/04/25 02:23:36;;;;;;;12.87;7.60;;;8.40;99.90;;;;;;4987587;28;20227;-80
2022/04/25 02:26:05;;;;;;;12.17;6.70;;;8.40;99.90;;;;;;4991159;28;20336;-80
2022/04/25 02:28:32;;;;;;;12.77;7.13;;;8.40;99.90;;;;;;4981673;28;20710;-79
2022/04/25 02:31:00;;;;;;;13.17;7.27;;;8.30;99.90;;;;;;4993947;28;20215;-80
2022/04/25 02:33:28;;;;;;;10.80;6.23;;;8.30;99.90;;;;;;4995971;28;20230;-79
2022/04/25 02:35:55;;;;;;;13.10;6.87;;;8.30;99.90;;;;;;4996052;28;20639;-79
2022/04/25 02:38:22;;;;;;;11.27;6.53;;;8.30;99.90;;;;;;4990237;28;20347;-79
2022/04/25 02:41:04;;;;;;;11.50;6.83;;;8.20;99.90;;;;;;4987763;28;20211;-79
2022/04/25 02:43:32;;;;;;;11.90;6.73;;;8.20;99.90;;;;;;4979279;28;20238;-81
2022/04/25 02:46:01;;;;;;;9.87;6.10;;;8.20;99.90;;;;;;4975810;28;20211;-81
2022/04/25 02:48:29;;;;;;;11.33;6.20;;;8.20;99.90;;;;;;4980617;28;20222;-81
2022/04/25 02:50:57;;;;;;;10.47;5.90;;;8.10;99.90;;;;;;4976098;28;20204;-80
2022/04/25 02:53:25;;;;;;;11.23;6.40;;;8.10;99.90;;;;;;4981431;28;20254;-83
2022/04/25 02:55:53;;;;;;;12.40;6.60;;;8.10;99.90;;;;;;4972848;28;20200;-80
2022/04/25 02:58:20;;;;;;;11.57;6.40;;;8.10;99.90;;;;;;4969123;28;20293;-80
2022/04/25 03:00:48;;;;;;;11.67;6.60;;;8.10;99.90;;;;;;4972912;28;20217;-81
2022/04/25 03:03:18;;;;;;;10.63;5.80;;;8.10;99.90;;;;;;4973379;28;20243;-80
2022/04/25 03:05:47;;;;;;;11.47;6.23;;;8.10;99.90;;;;;;4975388;28;20211;-82
2022/04/25 03:08:16;;;;;;;11.23;6.07;;;8.10;99.90;;;;;;4977154;28;20230;-81
2022/04/25 03:10:46;;;;;;;9.90;5.67;;;8.10;99.90;;;;;;4993123;28;20207;-80
2022/04/25 03:13:14;;;;;;;10.37;5.97;;;8.10;99.90;;;;;;4977214;28;20236;-80
2022/04/25 03:15:43;;;;;;;10.90;6.37;;;8.10;99.90;;;;;;4992165;28;20224;-80
2022/04/25 03:18:12;;;;;;;9.50;6.07;;;8.00;99.90;;;;;;4972465;28;20224;-79
2022/04/25 03:20:44;;;;;;;10.80;6.47;;;6.50;99.90;;;;;;4977904;28;20208;-79
2022/04/25 03:23:11;;;;;;;10.57;6.47;;;8.00;99.90;;;;;;4989656;28;20235;-81
2022/04/25 03:25:38;;;;;;;12.13;6.50;;;7.90;99.90;;;;;;4989111;28;20210;-80
2022/04/25 03:28:06;;;;;;;9.47;6.13;;;8.00;99.90;;;;;;4987288;28;20258;-79
2022/04/25 03:30:33;;;;;;;12.97;6.50;;;7.70;99.90;;;;;;4965526;28;20532;-79
2022/04/25 03:33:01;;;;;;;12.17;6.87;;;7.60;99.90;;;;;;4976087;28;20221;-80
2022/04/25 03:35:29;;;;;;;12.33;6.80;;;9.60;99.90;;;;;;4973429;28;20262;-79
2022/04/25 03:37:58;;;;;;;11.33;6.03;;;7.60;99.90;;;;;;4980239;28;20305;-79
2022/04/25 03:40:26;;;;;;;12.37;6.87;;;7.50;99.90;;;;;;4996763;28;20211;-78
2022/04/25 03:42:55;;;;;;;10.23;6.30;;;7.30;99.90;;;;;;4983007;28;20215;-79
2022/04/25 03:45:23;;;;;;;10.23;6.53;;;7.30;99.90;;;;;;4973588;28;20218;-79
2022/04/25 03:47:50;;;;;;;11.60;6.83;;;7.30;99.90;;;;;;4966104;28;20286;-79
2022/04/25 03:50:18;;;;;;;11.73;7.03;;;7.20;99.90;;;;;;4991902;28;20211;-79
2022/04/25 03:52:46;;;;;;;15.63;8.10;;;7.10;99.90;;;;;;4968623;28;20211;-79
2022/04/25 03:58:05;;;;;;;16.90;8.57;;;7.00;99.90;;;;;;4970558;28;20311;-81
2022/04/25 04:00:34;;;;;;;15.43;8.47;;;7.00;99.90;;;;;;4984361;28;20262;-79
2022/04/25 04:03:02;;;;;;;13.60;8.27;;;6.90;99.90;;;;;;4981309;28;20234;-80
2022/04/25 04:05:30;;;;;;;11.20;7.47;;;6.90;99.90;;;;;;4984366;28;20636;-80
2022/04/25 04:07:57;;;;;;;14.87;8.37;;;6.80;99.90;;;;;;4976800;28;20206;-79
2022/04/25 04:10:26;;;;;;;16.27;8.87;;;6.80;99.90;;;;;;4981938;28;20215;-79
2022/04/25 04:12:54;;;;;;;15.10;8.80;;;8.30;99.90;;;;;;4980714;28;20207;-78
2022/04/25 04:15:21;;;;;;;14.50;8.77;;;6.70;99.90;;;;;;4981397;28;20242;-79
2022/04/25 04:17:48;;;;;;;15.23;8.57;;;6.70;99.90;;;;;;4981255;28;20224;-79
2022/04/25 04:20:15;;;;;;;15.07;8.53;;;6.60;99.90;;;;;;4979397;28;20207;-79
2022/04/25 04:22:43;;;;;;;18.23;9.17;;;6.60;99.90;;;;;;4998729;28;20643;-80
2022/04/25 04:25:14;;;;;;;17.60;8.87;;;6.60;99.90;;;;;;4983231;28;20238;-80
2022/04/25 04:27:43;;;;;;;15.40;9.33;;;6.50;99.90;;;;;;4989229;28;20207;-80
2022/04/25 04:30:13;;;;;;;15.87;9.47;;;6.50;99.90;;;;;;4968595;28;20212;-80
2022/04/25 04:32:41;;;;;;;15.50;9.63;;;6.50;99.90;;;;;;4963179;28;20200;-79
2022/04/25 04:35:12;;;;;;;17.30;9.63;;;6.50;99.90;;;;;;4996975;28;20686;-80
2022/04/25 04:37:40;;;;;;;18.80;10.33;;;6.50;99.90;;;;;;4985467;28;20219;-80
2022/04/25 04:42:57;;;;;;;14.63;9.27;;;6.50;99.90;;;;;;4965534;28;20203;-83
2022/04/25 04:45:25;;;;;;;15.47;9.60;;;;;;;;;;4966495;28;20746;-83
2022/04/25 04:47:52;;;;;;;17.17;9.40;;;6.50;99.90;;;;;;4969114;28;20206;-81
2022/04/25 04:50:19;;;;;;;19.87;10.53;;;6.50;99.90;;;;;;4985728;28;20229;-80
2022/04/25 04:52:50;;;;;;;20.23;10.07;;;6.60;99.90;;;;;;4980621;28;20216;-80
2022/04/25 04:55:17;;;;;;;20.57;11.53;;;6.50;99.90;;;;;;4983278;28;20274;-80
2022/04/25 04:57:45;;;;;;;19.47;10.63;;;6.60;99.90;;;;;;4983980;28;20239;-84
2022/04/25 05:00:16;;;;;;;19.90;11.10;;;6.70;99.90;;;;;;4990069;28;20516;-84
2022/04/25 05:02:45;;;;;;;17.57;9.87;;;6.70;99.90;;;;;;4986818;28;20245;-80
2022/04/25 05:05:13;;;;;;;19.83;10.03;;;6.80;99.90;;;;;;4994487;28;20231;-84
2022/04/25 05:07:41;;;;;;;18.53;10.37;;;6.90;99.90;;;;;;4982865;28;20218;-81
2022/04/25 05:10:10;;;;;;;17.80;10.57;;;7.00;99.90;;;;;;4993258;28;20203;-85
2022/04/25 05:12:48;;;;;;;17.27;10.13;;;7.20;99.90;;;;;;4988238;28;20211;-84
2022/04/25 05:15:17;;;;;;;14.27;9.27;;;7.40;99.90;;;;;;4997856;23;20803;-78
2022/04/25 05:17:48;;;;;;;16.33;9.53;;;7.30;99.90;;;;;;4999896;28;20280;-77
2022/04/25 05:20:15;;;;;;;16.27;9.53;;;7.50;99.90;;;;;;4997577;28;20277;-78
2022/04/25 05:22:44;;;;;;;13.37;9.03;;;7.60;99.90;;;;;;4982756;28;20212;-77
2022/04/25 05:25:14;;;;;;;17.33;9.70;;;7.80;99.90;;;;;;4984614;28;20208;-78
2022/04/25 05:27:42;;;;;;;15.73;9.53;;;7.70;99.90;;;;;;5000475;28;20211;-76
2022/04/25 05:30:10;;;;;;;14.90;9.13;;;7.90;99.90;;;;;;5000336;28;20297;-79
2022/04/25 05:32:47;;;;;;;14.70;9.30;;;8.00;99.90;;;;;;4982493;28;20211;-78
2022/04/25 05:35:15;;;;;;;13.77;9.13;;;8.00;99.90;;;;;;5000463;28;20214;-78
2022/04/25 05:37:42;;;;;;;18.90;9.63;;;8.00;99.90;;;;;;4972593;28;20245;-79
2022/04/25 05:40:10;;;;;;;16.20;9.47;;;8.00;99.90;;;;;;4983586;28;20582;-78
2022/04/25 05:42:39;;;;;;;20.20;9.57;;;8.10;99.90;;;;;;4984314;28;20617;-79
2022/04/25 05:45:07;;;;;;;12.67;8.80;;;8.20;99.90;;;;;;4976637;28;20214;-79
2022/04/25 05:47:34;;;;;;;16.67;9.43;;;8.30;99.90;;;;;;5006362;28;20190;-79
2022/04/25 05:52:48;;;;;;;15.23;9.50;;;8.40;99.90;;;;;;4994376;28;20203;-79
2022/04/25 05:55:15;;;;;;;19.07;9.20;;;8.50;99.90;;;;;;4987965;28;20211;-78
2022/04/25 05:57:43;;;;;;;13.67;9.03;;;8.50;99.90;;;;;;5006284;28;20243;-78
2022/04/25 06:00:12;;;;;;;13.37;8.57;;;8.60;99.90;;;;;;5000946;28;20576;-77
2022/04/25 06:02:43;;;;;;;15.27;8.70;;;8.70;99.90;;;;;;4981606;28;20219;-79
2022/04/25 06:05:12;;;;;;;14.70;9.10;;;8.70;99.90;;;;;;5000178;28;20204;-79
2022/04/25 06:07:40;;;;;;;18.10;9.77;;;8.70;99.90;;;;;;4977968;28;20920;-79
2022/04/25 06:10:08;;;;;;;14.87;9.40;;;8.70;99.90;;;;;;4972460;28;20220;-79
2022/04/25 06:12:40;;;;;;;16.87;9.10;;;8.70;99.90;;;;;;4955613;28;20267;-79
2022/04/25 06:15:08;;;;;;;16.13;9.60;;;8.70;99.90;;;;;;4984018;28;20207;-76
2022/04/25 06:17:36;;;;;;;14.17;9.27;;;8.80;99.90;;;;;;4982967;28;20365;-77
2022/04/25 06:20:04;;;;;;;17.60;10.00;;;8.90;99.90;;;;;;4969170;28;20230;-76
2022/04/25 06:22:33;;;;;;;16.40;9.87;;;8.90;99.90;;;;;;4987658;28;20211;-78
2022/04/25 06:25:02;;;;;;;17.23;10.77;;;9.00;99.90;;;;;;4988438;28;20211;-77
2022/04/25 06:27:29;;;;;;;16.90;10.10;;;9.10;99.90;;;;;;4981915;28;20220;-77
2022/04/25 06:29:56;;;;;;;14.93;9.57;;;;;;;;;;4988086;28;20582;-79
2022/04/25 06:32:24;;;;;;;14.47;8.97;;;9.20;99.90;;;;;;4975859;28;20211;-79
2022/04/25 06:34:52;;;;;;;15.10;9.57;;;9.30;99.90;;;;;;4966093;28;20220;-80
2022/04/25 06:37:19;;;;;;;18.93;9.00;;;9.30;99.90;;;;;;4979367;28;20238;-77
2022/04/25 06:39:47;;;;;;;16.30;9.27;;;9.40;99.90;;;;;;4960610;28;20580;-77
2022/04/25 06:42:15;;;;;;;15.97;8.90;;;9.40;99.90;;;;;;4973226;28;20222;-77
2022/04/25 06:44:41;;;;;;;18.20;9.20;;;9.40;99.90;;;;;;4986578;28;20746;-77
2022/04/25 06:47:08;;;;;;;17.37;9.37;;;9.50;99.90;;;;;;4985479;28;20419;-77
2022/04/25 06:49:36;;;;;;;16.40;10.03;;;9.60;99.90;;;;;;4985365;28;20206;-77
2022/04/25 06:52:06;;;;;;;16.23;11.43;;;9.70;99.90;;;;;;4988122;28;20314;-77
2022/04/25 06:54:35;;;;;;;24.23;13.00;;;9.70;99.90;;;;;;4969928;28;20710;-78
2022/04/25 06:57:04;;;;;;;17.03;11.27;;;9.70;99.90;;;;;;4981012;28;20207;-77
2022/04/25 06:59:31;;;;;;;20.20;13.23;;;9.60;99.90;;;;;;4971158;28;20262;-78
2022/04/25 07:01:58;;;;;;;24.63;13.73;;;9.60;99.90;;;;;;4992927;28;20250;-78
2022/04/25 07:04:25;;;;;;;23.30;14.80;;;9.50;99.90;;;;;;4995030;28;20335;-78
2022/04/25 07:06:52;;;;;;;23.13;15.67;;;9.50;99.90;;;;;;4984820;28;20195;-78
2022/04/25 07:09:19;;;;;;;24.10;16.13;;;9.60;99.90;;;;;;4982400;28;20207;-78
2022/04/25 07:11:47;;;;;;;29.97;17.77;;;9.70;99.90;;;;;;4973268;28;20257;-79
2022/04/25 07:14:16;;;;;;;26.17;16.73;;;9.70;99.90;;;;;;4992966;28;20361;-79
2022/04/25 07:16:45;;;;;;;29.07;17.63;;;9.70;99.90;;;;;;4992523;28;20241;-78
2022/04/25 07:19:12;;;;;;;26.77;16.67;;;9.80;99.90;;;;;;4992541;28;20218;-76
2022/04/25 07:29:54;;;;;;;25.50;16.50;;;9.60;99.90;;;;;;4986670;28;20689;-76
2022/04/25 07:32:21;;;;;;;22.73;15.90;;;9.60;99.90;;;;;;4989341;28;20665;-76
2022/04/25 07:34:48;;;;;;;27.53;17.80;;;9.60;99.90;;;;;;4970484;28;20306;-76
2022/04/25 07:37:16;;;;;;;22.47;17.60;;;9.60;99.90;;;;;;4988781;28;20214;-76
2022/04/25 07:39:43;;;;;;;27.07;17.60;;;9.60;99.90;;;;;;4981344;28;20540;-76
2022/04/25 07:42:11;;;;;;;24.40;18.07;;;9.60;99.90;;;;;;4996711;28;20196;-75
2022/04/25 07:44:39;;;;;;;22.40;15.67;;;9.60;99.90;;;;;;4984456;28;20222;-79
2022/04/25 07:47:08;;;;;;;25.10;17.00;;;9.60;99.90;;;;;;5000961;28;20735;-77
2022/04/25 07:49:35;;;;;;;22.23;16.60;;;9.50;99.90;;;;;;4986465;28;20233;-78
2022/04/25 07:52:03;;;;;;;20.43;14.40;;;9.50;99.90;;;;;;4979711;28;20242;-78
2022/04/25 07:54:30;;;;;;;22.80;16.23;;;9.50;99.90;;;;;;4979268;28;20218;-78
2022/04/25 07:56:56;;;;;;;21.13;15.47;;;9.70;99.90;;;;;;4989458;28;20708;-79
2022/04/25 07:59:23;;;;;;;20.03;14.03;;;9.60;99.90;;;;;;4983744;28;20672;-79
2022/04/25 08:01:50;;;;;;;16.67;12.83;;;9.70;99.90;;;;;;4986689;28;20286;-78
2022/04/25 08:04:19;;;;;;;19.93;14.13;;;9.90;99.90;;;;;;4984001;28;20836;-78
2022/04/25 08:06:45;;;;;;;18.83;12.03;;;9.70;99.90;;;;;;4985581;28;20219;-78
2022/04/25 08:09:12;;;;;;;19.87;13.63;;;9.80;99.90;;;;;;4987782;28;20206;-78
2022/04/25 08:11:39;;;;;;;16.57;12.00;;;9.80;99.90;;;;;;4986750;28;20234;-78
2022/04/25 08:19:39;;;;;;;15.73;11.83;;;9.80;99.90;;;;;;4987851;28;20238;-78
2022/04/25 08:22:07;;;;;;;15.73;12.07;;;9.80;99.90;;;;;;4990615;28;20237;-78
2022/04/25 08:24:36;;;;;;;15.93;12.27;;;9.80;99.90;;;;;;4994700;28;20694;-78
2022/04/25 08:27:05;;;;;;;15.77;12.57;;;9.80;99.90;;;;;;4990760;28;20213;-78
2022/04/25 08:29:32;;;;;;;16.00;12.13;;;9.80;99.90;;;;;;4985076;28;20677;-78
2022/04/25 08:32:01;;;;;;;15.77;12.33;;;9.90;99.90;;;;;;4993840;28;20231;-79
2022/04/25 08:34:29;;;;;;;14.63;11.73;;;10.00;99.90;;;;;;4988483;28;20212;-78
2022/04/25 08:36:57;;;;;;;15.73;11.67;;;10.20;99.90;;;;;;4987740;28;20439;-78
2022/04/25 08:39:24;;;;;;;17.20;11.90;;;10.30;99.90;;;;;;4982971;28;20239;-78
2022/04/25 08:41:57;;;;;;;14.03;11.43;;;10.40;99.90;;;;;;4990281;28;20226;-78
2022/04/25 08:44:25;;;;;;;13.13;11.47;;;10.60;99.90;;;;;;4978252;28;20208;-79
2022/04/25 08:46:54;;;;;;;13.53;11.40;;;11.90;99.90;;;;;;4988521;28;20216;-78
2022/04/25 08:49:22;;;;;;;14.30;11.77;;;11.00;99.90;;;;;;4990577;28;20200;-78
2022/04/25 08:51:58;;;;;;;13.60;11.00;;;11.20;99.90;;;;;;4991227;28;20237;-78
2022/04/25 08:54:29;;;;;;;14.33;11.80;;;11.40;99.90;;;;;;4978012;28;20337;-78
2022/04/25 08:56:56;;;;;;;15.90;13.10;;;11.50;99.90;;;;;;4988055;28;20215;-76
2022/04/25 08:59:24;;;;;;;17.20;14.00;;;11.50;99.90;;;;;;4978169;28;20232;-76
2022/04/25 09:01:52;;;;;;;15.97;13.10;;;11.40;99.90;;;;;;4988935;28;20237;-76
2022/04/25 09:04:19;;;;;;;16.97;13.57;;;11.40;99.90;;;;;;4983598;28;20210;-76
2022/04/25 09:06:48;;;;;;;17.20;13.83;;;11.50;99.90;;;;;;4993635;28;20761;-76
2022/04/25 09:09:15;;;;;;;16.87;13.60;;;11.50;99.90;;;;;;4985551;28;20216;-76
2022/04/25 09:14:28;;;;;;;15.13;13.43;;;11.40;99.90;;;;;;4989252;28;20452;-78
2022/04/25 09:16:55;;;;;;;15.47;12.83;;;11.70;99.90;;;;;;4972974;28;20217;-78
2022/04/25 09:19:23;;;;;;;15.60;13.23;;;11.90;99.90;;;;;;4977315;28;20243;-78
2022/04/25 09:21:49;;;;;;;15.83;12.63;;;12.00;99.90;;;;;;4962659;28;20275;-78
2022/04/25 09:24:21;;;;;;;14.30;12.27;;;12.10;99.90;;;;;;4991417;28;20598;-77
2022/04/25 09:26:53;;;;;;;16.33;13.93;;;12.20;99.90;;;;;;4963500;28;20787;-76
2022/04/25 09:29:28;;;;;;;14.97;12.83;;;12.30;99.90;;;;;;4981828;28;20650;-76
2022/04/25 09:31:54;;;;;;;18.17;15.57;;;12.40;99.90;;;;;;4986437;28;20628;-76
2022/04/25 09:37:06;;;;;;;17.30;14.57;;;12.20;99.90;;;;;;4985258;28;20207;-78
2022/04/25 09:39:33;;;;;;;17.83;14.67;;;12.20;99.90;;;;;;4993600;28;20239;-77
2022/04/25 09:42:03;;;;;;;19.87;14.50;;;12.30;99.90;;;;;;4996405;28;20223;-76
2022/04/25 09:44:50;;;;;;;16.03;14.20;;;12.40;99.90;;;;;;4984396;28;20221;-75
2022/04/25 09:47:26;;;;;;;15.47;13.40;;;12.50;99.90;;;;;;4985361;28;20210;-75
2022/04/25 09:49:59;;;;;;;19.47;15.97;;;12.80;99.90;;;;;;4985501;28;20215;-75
2022/04/25 09:52:27;;;;;;;17.57;15.63;;;12.90;99.90;;;;;;4978030;28;20259;-75
2022/04/25 09:54:54;;;;;;;17.40;15.23;;;13.10;99.90;;;;;;4983133;28;20293;-75
2022/04/25 09:57:40;;;;;;;15.60;13.93;;;13.20;99.90;;;;;;4974363;28;20206;-75
2022/04/25 10:00:08;;;;;;;16.10;14.47;;;13.20;99.90;;;;;;4983388;28;20386;-76
2022/04/25 10:02:43;;;;;;;16.57;13.63;;;13.20;99.90;;;;;;4984468;28;20609;-76
2022/04/25 10:05:15;;;;;;;15.77;14.07;;;13.20;99.90;;;;;;4985673;28;20290;-76
2022/04/25 10:07:44;;;;;;;20.33;14.60;;;13.10;99.90;;;;;;4986442;28;20216;-78
2022/04/25 10:10:12;;;;;;;15.30;13.70;;;13.20;99.90;;;;;;4967835;28;20274;-77
2022/04/25 10:12:40;;;;;;;15.83;14.00;;;13.40;99.90;;;;;;4981289;28;20239;-78
2022/04/25 10:15:09;;;;;;;14.80;13.30;;;13.90;99.90;;;;;;4987008;28;20286;-78
2022/04/25 10:17:38;;;;;;;15.73;12.33;;;14.40;99.90;;;;;;4983841;28;20265;-76
2022/04/25 10:20:09;;;;;;;14.33;12.17;;;15.30;99.90;;;;;;4976987;28;20586;-76
2022/04/25 10:22:36;;;;;;;13.53;12.13;;;15.40;99.90;;;;;;4981541;28;20651;-76
2022/04/25 10:25:04;;;;;;;13.37;11.77;;;15.70;99.90;;;;;;4990877;28;20202;-78
2022/04/25 10:27:34;;;;;;;11.37;9.63;;;15.80;99.90;;;;;;4988004;28;20556;-78
2022/04/25 10:30:09;;;;;;;14.37;10.80;;;16.10;99.90;;;;;;4975490;28;20199;-79
2022/04/25 10:32:37;;;;;;;10.03;8.90;;;16.20;99.90;;;;;;4979973;28;20218;-79
2022/04/25 10:35:09;;;;;;;10.60;9.50;;;16.20;99.90;;;;;;4987571;28;20684;-78
2022/04/25 10:37:39;;;;;;;10.37;9.27;;;16.10;99.90;;;;;;4982688;28;20562;-78
2022/04/25 10:40:08;;;;;;;12.67;9.40;;;16.00;99.90;;;;;;4964719;28;20244;-78
2022/04/25 10:49:06;;;;;;;12.80;10.20;;;16.00;99.90;;;;;;5147654;27;20544;-80
2022/04/25 10:51:38;;;;;;;10.07;8.60;;;16.10;99.90;;;;;;5109285;28;20693;-82
2022/04/25 10:54:08;;;;;;;11.00;8.83;;;16.20;99.90;;;;;;5111199;28;20241;-84
2022/04/25 10:56:36;;;;;;;10.63;8.53;;;16.00;99.90;;;;;;5107922;28;20223;-82
2022/04/25 10:59:22;;;;;;;9.50;8.30;;;15.70;99.90;;;;;;5107092;28;20275;-80
2022/04/25 11:01:49;;;;;;;;;;;15.40;99.90;;;;;;5103382;28;19930;-81
2022/04/25 11:04:18;;;;;;;;;;;15.30;99.90;;;;;;5112974;28;19977;-84
2022/04/25 11:06:45;;;;;;;;;;;15.20;99.90;;;;;;5119069;28;19974;-82
2022/04/25 11:09:36;;;;;;;;;;;15.20;99.90;;;;;;5117915;27;19975;-82
2022/04/25 11:12:03;;;;;;;;;;;14.70;99.90;;;;;;5110192;28;19930;-82
2022/04/25 11:14:31;;;;;;;;;;;15.30;99.90;;;;;;5113628;28;19939;-83
2022/04/25 11:17:12;;;;;;;;;;;15.40;99.90;;;;;;5115713;28;19924;-83
2022/04/25 11:19:51;;;;;;;;;;;15.60;99.90;;;;;;5123969;28;20025;-84
2022/04/25 11:22:32;;;;;;;;;;;15.70;99.90;;;;;;5099035;28;19952;-84
2022/04/25 11:25:34;;;;;;;;;;;15.80;99.90;;;;;;5126688;28;20291;-84
2022/04/25 11:28:01;;;;;;;;;;;15.70;99.90;;;;;;5113230;28;19923;-82
2022/04/25 11:30:29;;;;;;;;;;;15.40;99.90;;;;;;5109303;28;19924;-84
2022/04/25 11:33:01;;;;;;;;;;;15.50;99.90;;;;;;5124654;27;19924;-84
2022/04/25 11:35:30;;;;;;;;;;;15.50;99.90;;;;;;5109016;28;19966;-83
2022/04/25 11:37:59;;;;;;;;;;;15.50;99.90;;;;;;5120901;28;20264;-84
2022/04/25 11:40:27;;;;;;;;;;;15.30;99.90;;;;;;5134777;28;19907;-83
2022/04/25 11:42:54;;;;;;;;;;;15.10;99.90;;;;;;5129258;28;19930;-84
2022/04/25 11:45:22;;;;;;;;;;;14.90;99.90;;;;;;5108387;28;20014;-80
2022/04/25 11:47:50;;;;;;;;;;;14.90;99.90;;;;;;5110182;28;19935;-80
2022/04/25 11:50:19;;;;;;;;;;;15.00;99.90;;;;;;5107541;28;20232;-78
2022/04/25 11:52:48;;;;;;;;;;;15.20;99.90;;;;;;5111308;28;19929;-79
2022/04/25 11:55:16;;;;;;;;;;;15.40;99.90;;;;;;5108333;28;20546;-79
2022/04/25 11:57:45;;;;;;;;;;;15.40;99.90;;;;;;5125224;27;20034;-78
2022/04/25 12:00:14;;;;;;;;;;;15.40;99.90;;;;;;5095083;28;19920;-78
2022/04/25 12:02:41;;;;;;;;;;;15.20;99.90;;;;;;5091670;28;19931;-77
2022/04/25 12:05:09;;;;;;;;;;;15.10;99.90;;;;;;5101315;28;19934;-77
2022/04/25 12:07:36;;;;;;;;;;;15.00;99.90;;;;;;5095858;28;19923;-78
2022/04/25 12:15:37;;;;;;;;;;;14.80;99.90;;;;;;5042560;28;19929;-78
2022/04/25 12:18:17;;;;;;;;;;;15.00;99.90;;;;;;5030014;28;19925;-78
2022/04/25 12:20:47;;;;;;;;;;;15.40;99.90;;;;;;5035187;28;19996;-76
2022/04/25 12:23:21;;;;;;;;;;;15.40;99.90;;;;;;5021074;28;20008;-77
2022/04/25 12:25:49;;;;;;;;;;;15.60;99.90;;;;;;5012846;28;19925;-78
2022/04/25 12:28:17;;;;;;;;;;;15.70;99.90;;;;;;5020035;28;20765;-77
2022/04/25 12:30:45;;;;;;;;;;;15.50;99.90;;;;;;5027219;28;20106;-77
2022/04/25 12:33:13;;;;;;;;;;;15.50;99.90;;;;;;5029876;28;20006;-77
2022/04/25 12:35:40;;;;;;;;;;;15.50;99.90;;;;;;5028091;28;19956;-77
2022/04/25 12:38:07;;;;;;;;;;;15.60;99.90;;;;;;5029805;28;20028;-78
2022/04/25 12:40:51;;;;;;;;;;;16.60;99.90;;;;;;5029283;28;19929;-78
2022/04/25 12:43:33;;;;;;;;;;;15.70;99.90;;;;;;5027580;28;19921;-78
2022/04/25 12:46:01;;;;;;;;;;;15.80;99.90;;;;;;5003220;28;19921;-78
2022/04/25 12:48:28;;;;;;;;;;;16.10;99.90;;;;;;5026543;28;19921;-78
2022/04/25 12:50:54;;;;;;;;;;;16.00;99.90;;;;;;5086741;22;20035;-76
2022/04/25 12:53:36;;;;;;;;;;;16.50;99.90;;;;;;5105806;27;20412;-76
2022/04/25 12:56:03;;;;;;;;;;;16.40;99.90;;;;;;5088366;28;19927;-77
2022/04/25 12:58:33;;;;;;;;;;;17.10;99.90;;;;;;5095823;28;19962;-78
2022/04/25 13:01:01;;;;;;;;;;;17.50;99.90;;;;;;5610603;22;20408;-78
2022/04/25 13:03:28;;;;;;;;;;;18.00;99.90;;;;;;5080948;28;19928;-77
2022/04/25 13:05:55;;;;;;;;;;;17.90;99.90;;;;;;5083508;28;20390;-77
2022/04/25 13:08:21;;;;;;;;;;;17.90;99.90;;;;;;5083538;28;19924;-77
2022/04/25 13:10:48;;;;;;;;;;;17.70;99.90;;;;;;5081967;28;19928;-77
2022/04/25 13:13:15;;;;;;;;;;;18.00;99.90;;;;;;5090518;28;19935;-77
2022/04/25 13:15:44;;;;;;;;;;;18.10;99.90;;;;;;5082630;28;19928;-77
2022/04/25 13:18:12;;;;;;;;;;;18.50;99.90;;;;;;5080837;28;19923;-78
2022/04/25 13:20:38;;;;;;;;;;;18.80;99.90;;;;;;5102294;28;19935;-77
2022/04/25 13:23:07;;;;;;;;;;;18.60;99.90;;;;;;5083330;28;19924;-77
2022/04/25 13:25:33;;;;;;;;;;;18.50;99.90;;;;;;5086950;28;19930;-78
2022/04/25 13:28:00;;;;;;;;;;;18.60;99.90;;;;;;5085597;28;19931;-77
2022/04/25 13:30:27;;;;;;;;;;;19.20;99.90;;;;;;5082400;28;19981;-78
2022/04/25 13:32:55;;;;;;;;;;;19.50;99.90;;;;;;5082913;28;19924;-78
2022/04/25 13:35:24;;;;;;;;;;;19.60;99.90;;;;;;5085778;28;20010;-77
2022/04/25 13:37:51;;;;;;;;;;;19.10;99.90;;;;;;5087324;28;19924;-77
2022/04/25 13:40:19;;;;;;;;;;;18.40;99.90;;;;;;5081744;28;19959;-77
2022/04/25 13:42:47;;;;;;;;;;;18.20;99.90;;;;;;5077965;28;19959;-77
2022/04/25 13:45:14;;;;;;;;;;;18.10;99.90;;;;;;5077918;28;19931;-74
2022/04/25 13:47:41;;;;;;;;;;;17.90;99.90;;;;;;5093676;28;19924;-74
2022/04/25 13:50:09;;;;;;;;;;;17.70;99.90;;;;;;5080797;28;19966;-74
2022/04/25 13:52:37;;;;;;;;;;;17.50;99.90;;;;;;5072271;28;19931;-74
2022/04/25 13:55:04;;;;;;;;;;;17.30;99.90;;;;;;5085472;28;19995;-74
2022/04/25 13:57:31;;;;;;;;;;;17.20;99.90;;;;;;5080310;28;19927;-74
2022/04/25 13:59:58;;;;;;;;;;;17.40;99.90;;;;;;5078488;28;19923;-75